Latest Weather Observations for Cerberus

IDV60901

Issued at 10:21 pm EST Thursday 2 July 2020 (issued every 10 minutes, with the page automatically refreshed every 10 minutes)

About weather observations | Map of Melbourne area stations | Latest observations for Melbourne area | Other Formats
Station Details ID: 086361 Name: CERBERUS Lat: -38.36 Lon: 145.18 Height: 12.69 m
Data from the previous 72 hours. | See also: Recent months at Cerberus
Date/Time
EST
Temp
°C
App
Temp
°C
Dew
Point
°C
Rel
Hum
%
Delta-T
°C
Wind Press
QNH
hPa
Press
MSL
hPa
Rain since
9am
mm
Dir  Spd
km/h
Gust
km/h
Spd
kts
Gust
kts
02/10:00pm 9.8 7.3 4.6 70 2.3 NW 7 11 4 6 1015.5 1015.5 0.0
02/09:30pm 10.2 6.5 4.6 68 2.5 NW 13 20 7 11 1015.6 1015.6 0.0
02/09:00pm 10.4 6.4 5.0 69 2.4 WNW 15 24 8 13 1015.5 1015.5 0.0
02/08:30pm 11.1 7.6 5.4 68 2.6 NW 13 22 7 12 1014.9 1014.9 0.0
02/08:00pm 10.6 7.5 5.4 70 2.4 NNW 11 24 6 13 1014.6 1014.6 0.0
02/07:30pm 9.6 7.1 4.6 71 2.2 NNW 7 13 4 7 1014.5 1014.5 0.0
02/07:00pm 9.1 6.6 3.5 68 2.4 NW 6 9 3 5 1014.5 1014.5 0.0
02/06:30pm 10.5 7.1 3.8 63 3.0 NW 11 15 6 8 1014.2 1014.2 0.0
02/06:00pm 10.9 7.0 3.5 60 3.3 WNW 13 19 7 10 1014.1 1014.1 0.0
02/05:30pm 11.7 6.5 3.7 58 3.6 WNW 20 41 11 22 1013.8 1013.8 0.0
02/05:00pm 11.8 6.9 4.3 60 3.4 NW 19 30 10 16 1013.4 1013.5 0.0
02/04:30pm 11.7 7.6 4.2 60 3.4 NW 15 24 8 13 1013.1 1013.2 0.0
02/04:00pm 12.1 7.3 4.6 60 3.4 WNW 19 28 10 15 1013.1 1013.2 0.0
02/03:30pm 12.8 7.0 4.5 57 3.8 WNW 24 37 13 20 1012.4 1012.5 0.0
02/03:00pm 12.6 7.2 4.6 58 3.7 WNW 22 35 12 19 1012.5 1012.6 0.0
02/02:30pm 13.0 8.7 5.2 59 3.6 WNW 17 28 9 15 1012.2 1012.3 0.0
02/02:00pm 11.8 6.6 5.4 65 3.0 NW 22 32 12 17 1012.3 1012.4 0.0
02/01:30pm 12.7 7.3 4.7 58 3.7 NW 22 35 12 19 1012.2 1012.3 0.0
02/01:00pm 13.2 7.6 5.6 60 3.6 WNW 24 41 13 22 1012.0 1012.1 0.0
02/12:30pm 13.1 8.3 5.8 61 3.4 NW 20 37 11 20 1012.0 1012.1 0.0
02/12:00pm 12.1 6.9 5.3 63 3.1 WNW 22 35 12 19 1011.9 1012.0 0.0
02/11:30am 12.3 6.7 5.5 63 3.2 WNW 24 35 13 19 1011.9 1012.0 0.0
02/11:00am 12.4 7.7 6.0 65 3.0 WNW 20 32 11 17 1011.9 1012.0 0.0
02/10:30am 11.7 7.0 5.3 65 2.9 WNW 19 35 10 19 1011.7 1011.8 0.0
02/10:00am 11.5 7.0 6.0 69 2.6 WNW 19 28 10 15 1011.5 1011.6 0.0
02/09:30am 10.9 6.1 5.7 70 2.4 NW 20 32 11 17 1010.8 1010.9 0.0
02/09:00am 10.8 7.1 6.2 73 2.1 NW 15 26 8 14 1010.6 1010.7 4.0
02/08:30am 9.9 6.1 5.7 75 1.9 NW 15 22 8 12 1010.2 1010.3 4.0
02/08:00am 9.8 5.7 6.0 77 1.8 NW 17 30 9 16 1010.0 1010.1 4.0
02/07:30am 9.8 5.0 5.8 76 1.8 NW 20 37 11 20 1009.2 1009.3 4.0
02/07:00am 10.4 5.6 5.6 72 2.2 WNW 20 35 11 19 1008.9 1009.0 3.8
02/06:30am 10.6 5.5 5.8 72 2.2 NW 22 37 12 20 1008.4 1008.5 3.8
02/06:00am 10.3 6.1 5.9 74 2.0 NW 17 26 9 14 1007.6 1007.7 3.8
02/05:30am 9.9 7.3 5.9 76 1.8 NW 9 20 5 11 1006.8 1006.9 3.8
02/05:00am 10.1 5.9 5.9 75 1.9 NW 17 30 9 16 1006.1 1006.2 3.8
02/04:30am 10.3 4.9 6.3 76 1.9 NW 24 41 13 22 1005.4 1005.5 3.8
02/04:00am 10.3 5.7 6.5 77 1.8 NW 20 35 11 19 1005.4 1005.5 3.8
02/03:30am 9.8 5.9 7.1 83 1.3 NW 17 33 9 18 1005.1 1005.2 3.8
02/03:00am 9.7 5.9 7.5 86 1.1 NNW 17 33 9 18 1005.4 1005.5 3.8
02/02:30am 9.4 7.3 6.8 84 1.2 NNW 7 15 4 8 1005.1 1005.2 3.8
02/02:00am 9.7 5.8 7.1 84 1.2 NW 17 24 9 13 1005.6 1005.7 2.0
02/01:30am 10.2 5.7 6.9 80 1.6 WNW 20 32 11 17 1005.6 1005.7 1.0
02/01:00am 11.3 3.4 6.4 72 2.3 WNW 37 65 20 35 1005.2 1005.3 0.2
02/12:52am 14.0 7.9 6.6 61 3.6 NW 28 65 15 35 1004.6 1004.7 0.0
02/12:30am 15.3 10.4 7.1 58 4.0 NW 22 37 12 20 1004.1 1004.2 0.0
02/12:00am 15.0 11.5 7.3 60 3.8 NNW 15 32 8 17 1004.4 1004.5 0.0
 
Date/Time
EST
Temp
°C
App
Temp
°C
Dew
Point
°C
Rel
Hum
%
Delta-T
°C
Wind Press
QNH
hPa
Press
MSL
hPa
Rain since
9am
mm
Dir  Spd
km/h
Gust
km/h
Spd
kts
Gust
kts
01/11:30pm 14.5 11.5 7.8 64 3.3 N 13 26 7 14 1004.0 1004.1 0.0
01/11:00pm 13.5 10.5 7.7 68 2.9 N 13 26 7 14 1004.8 1004.9 0.0
01/10:30pm 15.2 10.7 6.0 54 4.4 NNW 19 39 10 21 1005.5 1005.6 0.0
01/10:00pm 15.5 10.7 4.8 49 5.0 N 19 35 10 19 1004.3 1004.4 0.0
01/09:30pm 14.9 10.0 5.1 52 4.6 N 20 33 11 18 1004.0 1004.1 0.0
01/09:00pm 14.1 10.2 5.2 55 4.2 N 15 30 8 16 1005.1 1005.2 0.0
01/08:30pm 13.4 10.2 5.3 58 3.8 NNE 11 24 6 13 1005.9 1006.0 0.0
01/08:00pm 13.6 10.4 5.3 57 3.9 N 11 26 6 14 1006.3 1006.4 0.0
01/07:30pm 13.2 10.5 5.6 60 3.6 NNE 9 20 5 11 1006.5 1006.6 0.0
01/07:00pm 12.8 10.0 5.0 59 3.6 NNE 9 15 5 8 1006.9 1007.0 0.0
01/06:30pm 13.2 10.3 4.6 56 3.9 NNE 9 17 5 9 1007.4 1007.5 0.0
01/06:00pm 13.6 10.2 4.2 53 4.3 N 11 17 6 9 1007.9 1008.0 0.0
01/05:30pm 13.5 10.6 4.6 55 4.1 N 9 15 5 8 1008.2 1008.3 0.0
01/05:00pm 14.6 11.3 4.3 50 4.8 N 11 20 6 11 1008.3 1008.4 0.0
01/04:30pm 15.5 11.8 4.3 47 5.2 N 13 20 7 11 1008.4 1008.5 0.0
01/04:00pm 16.4 13.0 4.1 44 5.7 N 11 20 6 11 1008.9 1009.0 0.0
01/03:30pm 17.3 13.4 3.2 39 6.5 N 13 24 7 13 1009.2 1009.3 0.0
01/03:00pm 17.6 14.8 5.2 44 6.0 N 9 20 5 11 1009.5 1009.6 0.0
01/02:30pm 17.9 15.7 6.1 46 5.8 N 7 22 4 12 1009.7 1009.8 0.0
01/02:00pm 16.6 14.3 7.3 54 4.6 N 9 17 5 9 1010.1 1010.2 0.0
01/01:30pm 16.8 13.7 7.2 53 4.8 NNW 13 22 7 12 1010.6 1010.7 0.0
01/01:00pm 15.7 13.6 8.4 62 3.7 NNW 9 20 5 11 1011.1 1011.2 0.0
01/12:30pm 13.9 12.9 8.9 72 2.5 NNE 4 9 2 5 1011.7 1011.8 0.0
01/12:00pm 13.5 12.0 8.6 72 2.5 NNE 6 9 3 5 1012.3 1012.4 0.0
01/11:30am 13.7 12.3 9.0 73 2.4 NE 6 11 3 6 1013.1 1013.2 0.0
01/11:00am 12.6 10.8 8.1 74 2.2 NE 7 15 4 8 1013.8 1013.8 0.0
01/10:30am 12.6 11.0 8.7 77 1.9 NE 7 15 4 8 1014.2 1014.2 0.0
01/10:00am 12.4 10.8 8.9 79 1.8 NNE 7 15 4 8 1014.5 1014.5 0.0
01/09:30am 12.4 11.2 9.4 82 1.5 NNE 6 9 3 5 1014.9 1014.9 0.0
01/09:00am 11.1 9.7 8.8 86 1.1 NNW 6 11 3 6 1015.1 1015.1 0.0
01/08:30am 9.0 7.1 7.6 91 0.7 NNW 7 11 4 6 1015.4 1015.4 0.0
01/08:00am 6.4 4.1 4.9 90 0.7 NW 6 6 3 3 1015.4 1015.4 0.0
01/07:30am 8.1 6.6 6.6 90 0.7 NW 4 6 2 3 1015.6 1015.6 0.0
01/07:00am 6.8 4.0 5.1 89 0.7 WNW 9 11 5 6 1015.4 1015.4 0.0
01/06:30am 6.9 4.5 5.2 89 0.7 NW 7 11 4 6 1015.0 1015.0 0.0
01/06:00am 5.2 2.7 3.5 89 0.7 NNW 6 7 3 4 1015.0 1015.0 0.0
01/05:30am 3.7 1.3 2.1 89 0.6 N 4 6 2 3 1015.0 1015.0 0.0
01/05:00am 5.3 3.9 3.5 88 0.7 CALM 0 4 0 2 1015.0 1015.0 0.0
01/04:30am 5.2 3.0 3.2 87 0.8 N 4 6 2 3 1015.1 1015.1 0.0
01/04:00am 5.0 2.7 2.9 86 0.9 N 4 4 2 2 1015.1 1015.1 0.0
01/03:30am 5.0 2.7 2.7 85 0.9 N 4 6 2 3 1015.2 1015.2 0.0
01/03:00am 6.2 4.4 3.7 84 1.1 N 2 6 1 3 1015.5 1015.5 0.0
01/02:30am 6.8 5.0 3.2 78 1.5 N 2 2 1 1 1015.7 1015.7 0.0
01/02:00am 9.2 7.8 5.6 78 1.6 N 2 6 1 3 1015.9 1015.9 0.0
01/01:30am 10.6 8.5 6.7 77 1.8 N 7 11 4 6 1015.9 1015.9 0.0
01/01:00am 9.6 8.2 5.6 76 1.8 N 2 6 1 3 1016.1 1016.1 0.0
01/12:30am 11.4 9.4 6.9 74 2.1 N 7 13 4 7 1016.4 1016.4 0.0
01/12:00am 11.9 9.2 7.4 74 2.2 N 11 17 6 9 1016.4 1016.4 0.0
 
Date/Time
EST
Temp
°C
App
Temp
°C
Dew
Point
°C
Rel
Hum
%
Delta-T
°C
Wind Press
QNH
hPa
Press
MSL
hPa
Rain since
9am
mm
Dir  Spd
km/h
Gust
km/h
Spd
kts
Gust
kts
30/11:30pm 11.7 9.7 7.0 73 2.2 N 7 11 4 6 1016.9 1016.9 0.0
30/11:00pm 11.9 10.1 7.2 73 2.3 N 6 11 3 6 1017.3 1017.3 0.0
30/10:30pm 12.1 10.3 7.0 71 2.4 N 6 9 3 5 1017.5 1017.5 0.0
30/10:00pm 12.2 10.4 7.1 71 2.4 NNW 6 13 3 7 1017.5 1017.5 0.0
30/09:30pm 12.3 10.3 7.0 70 2.5 NNW 7 13 4 7 1017.4 1017.4 0.0
30/09:00pm 12.1 9.6 6.6 69 2.6 NNW 9 13 5 7 1017.2 1017.2 0.0
30/08:30pm 12.2 9.6 6.0 66 2.9 NNW 9 15 5 8 1017.2 1017.2 0.0
30/08:00pm 12.0 9.7 5.6 65 3.0 NW 7 15 4 8 1017.1 1017.1 0.0
30/07:30pm 12.5 9.8 5.4 62 3.3 NNW 9 19 5 10 1017.0 1017.0 0.0
30/07:00pm 12.6 9.7 4.8 59 3.6 NNW 9 17 5 9 1016.8 1016.8 0.0
30/06:30pm 13.3 8.9 4.7 56 4.0 NNW 17 28 9 15 1016.4 1016.4 0.0
30/06:00pm 13.0 9.3 4.7 57 3.8 NNW 13 24 7 13 1016.2 1016.2 0.0
30/05:30pm 13.8 9.0 4.7 54 4.2 NNW 19 30 10 16 1015.7 1015.7 0.0
30/05:00pm 13.9 9.9 4.8 54 4.2 NNW 15 32 8 17 1015.4 1015.4 0.0
30/04:30pm 14.2 9.8 5.0 54 4.3 N 17 32 9 17 1014.9 1014.9 0.0
30/04:00pm 14.5 10.2 5.3 54 4.3 N 17 35 9 19 1015.0 1015.0 0.0
30/03:30pm 14.8 10.1 5.1 52 4.6 N 19 37 10 20 1014.6 1014.6 0.0
30/03:00pm 14.8 10.0 4.5 50 4.8 N 19 35 10 19 1015.1 1015.1 0.0
30/02:30pm 14.7 11.1 5.0 52 4.5 N 13 24 7 13 1015.2 1015.2 0.0
30/02:00pm 15.8 11.5 5.1 49 5.1 NNW 17 32 9 17 1015.7 1015.7 0.0
30/01:30pm 15.5 12.3 7.0 57 4.2 NNW 13 22 7 12 1016.2 1016.2 0.0
30/01:00pm 15.4 11.3 6.2 54 4.4 N 17 35 9 19 1016.8 1016.8 0.0
30/12:30pm 15.1 11.6 7.2 59 3.9 N 15 37 8 20 1016.9 1016.9 0.0
30/12:00pm 12.4 11.0 8.7 78 1.8 NNE 6 9 3 5 1017.7 1017.7 0.0
30/11:30am 11.0 9.5 8.4 84 1.3 NNE 6 11 3 6 1018.3 1018.3 0.0
30/11:00am 10.4 8.8 8.2 86 1.1 NNE 6 7 3 4 1019.0 1019.0 0.0
30/10:30am 8.7 6.6 6.8 88 0.9 NNE 7 11 4 6 1019.5 1019.5 0.0
30/10:00am 8.0 6.1 6.5 90 0.7 NNE 6 9 3 5 1019.8 1019.8 0.0
30/09:30am 6.3 4.1 5.1 92 0.5 NNE 6 9 3 5 1020.0 1020.0 0.0
30/09:00am 5.5 3.1 4.3 92 0.5 N 6 9 3 5 1020.3 1020.3 0.2
30/08:30am 4.2 1.9 3.0 92 0.5 NNE 4 6 2 3 1020.6 1020.6 0.2
30/08:00am 3.5 1.1 2.3 92 0.5 NNE 4 7 2 4 1021.0 1021.0 0.2
30/07:30am 2.4 -0.2 1.2 92 0.5 NE 4 6 2 3 1020.6 1020.6 0.2
30/07:00am 4.2 2.3 3.0 92 0.5 NE 2 4 1 2 1020.6 1020.6 0.2
30/06:30am 4.6 2.0 3.4 92 0.5 NE 6 11 3 6 1020.4 1020.4 0.2
30/06:00am 4.3 1.7 3.1 92 0.5 NE 6 9 3 5 1020.5 1020.5 0.2
30/05:30am 3.1 1.0 1.8 91 0.5 NE 2 4 1 2 1020.9 1020.9 0.2
30/05:00am 3.7 1.0 2.4 91 0.5 NNE 6 9 3 5 1021.0 1021.0 0.2
30/04:30am 3.6 0.8 2.3 91 0.5 N 6 9 3 5 1021.0 1021.0 0.2
30/04:00am 3.4 1.4 2.1 91 0.5 N 2 4 1 2 1021.2 1021.2 0.2
30/03:30am 3.9 1.6 2.6 91 0.5 N 4 6 2 3 1021.4 1021.4 0.2
30/03:00am 4.0 1.7 2.7 91 0.5 NE 4 7 2 4 1021.8 1021.8 0.2
30/02:30am 3.5 1.4 2.0 90 0.6 N 2 4 1 2 1022.1 1022.1 0.2
30/02:00am 4.1 2.2 2.6 90 0.6 NE 2 2 1 1 1022.3 1022.3 0.0
30/01:30am 4.6 2.7 3.1 90 0.6 NE 2 4 1 2 1022.7 1022.7 0.0
30/01:00am 5.2 3.4 3.7 90 0.6 NE 2 4 1 2 1022.8 1022.8 0.0
30/12:30am 6.7 4.5 5.2 90 0.7 NNE 6 11 3 6 1023.1 1023.1 0.0
30/12:00am 7.0 4.8 5.5 90 0.7 NNE 6 13 3 7 1023.3 1023.3 0.0
 
Date/Time
EST
Temp
°C
App
Temp
°C
Dew
Point
°C
Rel
Hum
%
Delta-T
°C
Wind Press
QNH
hPa
Press
MSL
hPa
Rain since
9am
mm
Dir  Spd
km/h
Gust
km/h
Spd
kts
Gust
kts
29/11:30pm 7.1 4.8 5.6 90 0.7 NE 7 17 4 9 1023.2 1023.2 0.0
29/11:00pm 6.9 4.5 5.4 90 0.7 NE 7 13 4 7 1023.3 1023.3 0.0
29/10:30pm 4.4 2.5 2.9 90 0.6 NNE 2 9 1 5 1023.8 1023.8 0.0

Latest Capital City Observations: Canberra | Sydney | Melbourne | Brisbane | Adelaide | Perth | Hobart | Darwin

Other formats

Comma delimited format used in spreadsheet applications
http://www.bom.gov.au/fwo/IDV60901/IDV60901.94898.axf

JavaScript Object Notation format (JSON) in row-major order
http://www.bom.gov.au/fwo/IDV60901/IDV60901.94898.json

Data quality

Most of these data are generated automatically and are frequently updated. Quality checks on data are not normally performed. It is possible for incorrect values to appear. Refer to information at About Latest Weather Observations and please check the disclaimer before using these data.